createdAt,value
2023-10-29T00:01:45.254Z,0.60
2023-10-29T00:04:58.207Z,0.50
2023-10-29T00:08:10.144Z,0.77
2023-10-29T00:11:18.731Z,0.63
2023-10-29T00:14:27.349Z,0.57
2023-10-29T00:17:35.622Z,0.73
2023-10-29T00:20:45.333Z,0.60
2023-10-29T00:23:53.665Z,0.50
2023-10-29T00:27:01.975Z,0.57
2023-10-29T00:30:11.271Z,0.53
2023-10-29T00:33:19.580Z,0.70
2023-10-29T00:36:29.239Z,0.57
2023-10-29T00:39:37.384Z,0.70
2023-10-29T00:42:45.536Z,0.70
2023-10-29T00:45:55.741Z,0.70
2023-10-29T00:49:04.448Z,0.70
2023-10-29T00:52:15.626Z,0.50
2023-10-29T00:55:24.587Z,0.60
2023-10-29T00:58:35.400Z,0.40
2023-10-29T01:01:43.862Z,0.70
2023-10-29T01:04:52.149Z,0.50
2023-10-29T01:08:06.485Z,0.50
2023-10-29T01:11:14.783Z,0.80
2023-10-29T01:14:24.637Z,0.80
2023-10-29T01:17:33.020Z,0.30
2023-10-29T01:20:41.427Z,0.60
2023-10-29T01:23:51.356Z,0.70
2023-10-29T01:26:59.599Z,0.40
2023-10-29T01:30:09.460Z,0.40
2023-10-29T01:33:18.494Z,0.50
2023-10-29T01:36:26.740Z,0.53
2023-10-29T01:39:37.078Z,0.40
2023-10-29T01:42:46.734Z,0.67
2023-10-29T01:45:55.300Z,0.30
2023-10-29T01:49:05.255Z,0.53
2023-10-29T01:52:13.961Z,0.60
2023-10-29T01:55:23.574Z,0.70
2023-10-29T01:58:31.921Z,0.70
2023-10-29T02:01:40.251Z,0.60
2023-10-29T02:04:48.599Z,0.70
2023-10-29T02:07:56.989Z,0.50
2023-10-29T02:11:07.359Z,0.50
2023-10-29T02:14:15.775Z,0.67
2023-10-29T02:17:26.203Z,0.50
2023-10-29T02:20:34.527Z,0.50
2023-10-29T02:23:44.149Z,0.70
2023-10-29T02:26:52.573Z,0.80
2023-10-29T02:30:01.467Z,0.63
2023-10-29T02:33:10.836Z,0.50
2023-10-29T02:36:19.145Z,0.53
2023-10-29T02:39:28.703Z,0.90
2023-10-29T02:42:36.914Z,0.50
2023-10-29T02:45:45.982Z,0.47
2023-10-29T02:48:54.456Z,0.57
2023-10-29T02:52:02.746Z,0.60
2023-10-29T02:58:54.492Z,0.70
2023-10-29T03:02:02.842Z,0.53
2023-10-29T03:05:14.707Z,0.60
2023-10-29T03:08:23.213Z,0.70
2023-10-29T03:11:31.416Z,0.40
2023-10-29T03:14:41.137Z,0.33
2023-10-29T03:17:49.554Z,0.30
2023-10-29T03:20:57.875Z,0.40
2023-10-29T03:24:07.421Z,0.27
2023-10-29T03:27:15.892Z,0.40
2023-10-29T03:30:25.857Z,0.40
2023-10-29T03:33:36.796Z,0.20
2023-10-29T03:36:46.310Z,0.40
2023-10-29T03:39:54.791Z,0.50
2023-10-29T03:43:04.107Z,0.60
2023-10-29T03:46:13.953Z,0.40
2023-10-29T03:49:22.470Z,0.27
2023-10-29T03:52:31.063Z,1.00
2023-10-29T03:55:39.492Z,0.43
2023-10-29T03:58:48.735Z,0.30
2023-10-29T04:01:58.887Z,0.30
2023-10-29T04:05:10.956Z,0.30
2023-10-29T04:08:19.703Z,0.23
2023-10-29T04:11:28.032Z,0.40
2023-10-29T04:14:36.722Z,0.37
2023-10-29T04:17:48.756Z,0.57
2023-10-29T04:20:57.759Z,0.70
2023-10-29T04:24:08.216Z,0.40
2023-10-29T04:27:16.919Z,0.60
2023-10-29T04:30:25.888Z,0.40
2023-10-29T04:33:35.784Z,0.50
2023-10-29T04:36:49.646Z,0.30
2023-10-29T04:39:57.989Z,0.40
2023-10-29T04:43:06.670Z,0.50
2023-10-29T04:46:15.177Z,0.57
2023-10-29T04:49:25.636Z,0.40
2023-10-29T04:52:34.145Z,0.43
2023-10-29T04:55:45.565Z,0.40
2023-10-29T04:58:53.930Z,0.50
2023-10-29T05:02:02.633Z,0.30
2023-10-29T05:05:13.112Z,0.57
2023-10-29T05:08:22.012Z,0.43
2023-10-29T05:11:32.536Z,0.40
2023-10-29T05:14:41.810Z,0.50
2023-10-29T05:17:50.749Z,0.40
2023-10-29T05:21:03.126Z,0.30
2023-10-29T05:24:12.681Z,0.50
2023-10-29T05:27:21.792Z,0.53
2023-10-29T05:30:30.405Z,1.03
2023-10-29T05:33:39.120Z,1.00
2023-10-29T05:36:49.356Z,1.00
2023-10-29T05:39:57.595Z,1.43
2023-10-29T05:43:07.855Z,1.17
2023-10-29T05:46:18.318Z,0.90
2023-10-29T05:49:27.670Z,1.00
2023-10-29T05:52:37.889Z,1.10
2023-10-29T05:55:49.189Z,0.97
2023-10-29T05:58:57.453Z,0.90
2023-10-29T06:02:06.959Z,0.67
2023-10-29T06:05:15.394Z,1.00
2023-10-29T06:08:25.152Z,0.80
2023-10-29T06:11:33.350Z,1.10
2023-10-29T06:14:42.170Z,0.83
2023-10-29T06:17:50.686Z,0.60
2023-10-29T06:20:59.503Z,0.57
2023-10-29T06:24:10.872Z,0.50
2023-10-29T06:27:19.277Z,0.47
2023-10-29T06:30:27.591Z,0.30
2023-10-29T06:33:38.740Z,0.23
2023-10-29T06:36:47.218Z,0.50
2023-10-29T06:39:56.936Z,0.47
2023-10-29T06:43:05.816Z,0.47
2023-10-29T06:46:14.296Z,0.50
2023-10-29T06:49:23.269Z,0.70
2023-10-29T06:52:31.683Z,0.67
2023-10-29T06:55:42.436Z,0.77
2023-10-29T06:58:50.934Z,0.67
2023-10-29T07:02:00.300Z,0.73
2023-10-29T07:05:10.704Z,0.50
2023-10-29T07:08:19.048Z,0.90
2023-10-29T07:11:30.378Z,0.80
2023-10-29T07:14:38.652Z,0.43
2023-10-29T07:17:46.928Z,0.50
2023-10-29T07:20:55.428Z,0.50
2023-10-29T07:24:05.288Z,0.90
2023-10-29T07:27:16.078Z,0.67
2023-10-29T07:30:24.292Z,1.23
2023-10-29T07:33:33.364Z,12.67
2023-10-29T07:36:45.392Z,8.40
2023-10-29T07:39:53.645Z,8.33
2023-10-29T07:43:03.438Z,11.90
2023-10-29T07:46:11.718Z,18.37
2023-10-29T07:49:19.990Z,9.20
2023-10-29T07:52:28.202Z,4.20
2023-10-29T07:55:36.607Z,4.13
2023-10-29T07:58:47.732Z,1.37
2023-10-29T08:01:55.946Z,1.30
2023-10-29T08:05:04.450Z,2.60
2023-10-29T08:08:12.769Z,3.40
2023-10-29T08:11:22.328Z,1.00
2023-10-29T08:14:32.671Z,0.77
2023-10-29T08:17:41.003Z,0.60
2023-10-29T08:20:50.218Z,0.20
2023-10-29T08:23:58.614Z,0.30
2023-10-29T08:27:07.641Z,0.43
2023-10-29T08:30:17.470Z,0.30
2023-10-29T08:33:25.937Z,0.30
2023-10-29T08:36:34.773Z,0.20
2023-10-29T08:39:43.008Z,0.20
2023-10-29T08:42:51.225Z,0.30
2023-10-29T08:46:00.906Z,0.30
2023-10-29T08:49:11.711Z,0.20
2023-10-29T08:52:20.352Z,0.30
2023-10-29T08:55:29.154Z,0.37
2023-10-29T08:58:39.391Z,0.20
2023-10-29T09:01:49.079Z,0.20
2023-10-29T09:04:58.392Z,0.20
2023-10-29T09:08:07.180Z,0.17
2023-10-29T09:11:16.384Z,0.10
2023-10-29T09:14:24.643Z,0.30
2023-10-29T09:17:35.118Z,0.23
2023-10-29T09:20:47.436Z,0.20
2023-10-29T09:23:55.787Z,0.20
2023-10-29T09:27:04.090Z,0.40
2023-10-29T09:30:13.680Z,0.30
2023-10-29T09:33:23.599Z,0.30
2023-10-29T09:36:32.780Z,0.20
2023-10-29T09:39:41.024Z,0.33
2023-10-29T09:42:56.134Z,0.30
2023-10-29T09:46:09.868Z,0.30
2023-10-29T09:49:21.891Z,0.33
2023-10-29T09:52:34.628Z,0.40
2023-10-29T09:55:42.949Z,1.60
2023-10-29T09:58:51.349Z,1.73
2023-10-29T10:01:59.672Z,0.90
2023-10-29T10:05:12.009Z,0.37
2023-10-29T10:08:26.648Z,0.20
2023-10-29T10:11:34.881Z,0.13
2023-10-29T10:14:43.349Z,0.40
2023-10-29T10:18:00.987Z,0.30
2023-10-29T10:21:10.704Z,0.20
2023-10-29T10:24:19.055Z,0.60
2023-10-29T10:27:27.356Z,0.30
2023-10-29T10:30:38.689Z,0.40
2023-10-29T10:33:46.934Z,0.10
2023-10-29T10:37:01.864Z,0.30
2023-10-29T10:40:24.723Z,0.40
2023-10-29T10:43:33.362Z,0.20
2023-10-29T10:46:49.719Z,0.20
2023-10-29T10:49:58.760Z,0.23
2023-10-29T10:53:11.222Z,0.40
2023-10-29T10:56:19.906Z,0.10
2023-10-29T10:59:28.228Z,0.10
2023-10-29T11:02:41.354Z,0.30
2023-10-29T11:05:50.286Z,0.20
2023-10-29T11:09:00.945Z,0.90
2023-10-29T11:12:14.018Z,0.27
2023-10-29T11:15:24.762Z,0.20
2023-10-29T11:18:34.680Z,0.10
2023-10-29T11:21:44.933Z,0.23
2023-10-29T11:25:41.594Z,0.30
2023-10-29T11:28:51.635Z,0.27
2023-10-29T11:32:26.525Z,0.10
2023-10-29T11:35:36.254Z,0.20
2023-10-29T11:38:44.847Z,0.13
2023-10-29T11:41:55.529Z,0.30
2023-10-29T11:45:38.680Z,0.10
2023-10-29T11:49:06.551Z,0.10
2023-10-29T11:52:14.986Z,0.30
2023-10-29T11:55:24.973Z,0.20
2023-10-29T11:58:35.021Z,0.27
2023-10-29T12:01:44.826Z,0.10
2023-10-29T12:04:53.409Z,0.10
2023-10-29T12:08:02.120Z,0.10
2023-10-29T12:11:10.338Z,0.10
2023-10-29T12:14:41.103Z,0.10
2023-10-29T12:17:49.986Z,0.20
2023-10-29T12:21:06.428Z,0.20
2023-10-29T12:24:16.175Z,0.10
2023-10-29T12:27:25.629Z,0.20
2023-10-29T12:30:42.191Z,0.10
2023-10-29T12:33:57.865Z,0.20
2023-10-29T12:37:06.546Z,0.10
2023-10-29T12:40:16.118Z,0.20
2023-10-29T12:43:37.138Z,0.20
2023-10-29T12:46:51.469Z,0.37
2023-10-29T12:50:04.674Z,0.30
2023-10-29T12:53:14.715Z,0.10
2023-10-29T12:56:22.850Z,0.10
2023-10-29T12:59:33.397Z,0.30
2023-10-29T13:02:44.016Z,0.40
2023-10-29T13:05:55.356Z,0.20
2023-10-29T13:09:08.873Z,0.10
2023-10-29T13:12:18.143Z,0.10
2023-10-29T13:15:26.693Z,0.20
2023-10-29T13:18:37.183Z,0.23
2023-10-29T13:21:46.023Z,0.13
2023-10-29T13:24:56.512Z,0.13
2023-10-29T13:28:05.556Z,0.20
2023-10-29T13:31:15.084Z,0.30
2023-10-29T13:34:26.952Z,0.10
2023-10-29T13:37:35.720Z,0.10
2023-10-29T13:40:45.167Z,0.10
2023-10-29T13:43:53.923Z,0.10
2023-10-29T13:47:03.511Z,0.10
2023-10-29T13:50:13.739Z,0.10
2023-10-29T13:53:22.423Z,0.00
2023-10-29T13:56:30.992Z,0.20
2023-10-29T13:59:39.651Z,0.10
2023-10-29T14:02:49.101Z,0.10
2023-10-29T14:05:59.268Z,0.20
2023-10-29T14:09:08.049Z,0.20
2023-10-29T14:12:17.802Z,0.10
2023-10-29T14:15:26.548Z,0.07
2023-10-29T14:18:35.529Z,0.10
2023-10-29T14:21:50.928Z,0.20
2023-10-29T14:24:59.778Z,0.10
2023-10-29T14:28:08.284Z,0.17
2023-10-29T14:31:16.953Z,0.03
2023-10-29T14:34:25.619Z,0.30
2023-10-29T14:37:35.532Z,0.20
2023-10-29T14:40:44.159Z,0.30
2023-10-29T14:43:52.718Z,0.10
2023-10-29T14:47:01.427Z,0.17
2023-10-29T14:50:11.001Z,0.20
2023-10-29T14:53:21.210Z,0.10
2023-10-29T14:56:30.209Z,0.10
2023-10-29T14:59:38.763Z,0.20
2023-10-29T15:02:47.443Z,0.20
2023-10-29T15:05:57.133Z,0.30
2023-10-29T15:09:07.361Z,0.40
2023-10-29T15:12:16.058Z,0.20
2023-10-29T15:15:29.690Z,0.20
2023-10-29T15:18:39.076Z,0.30
2023-10-29T15:21:47.660Z,0.40
2023-10-29T15:24:57.600Z,0.70
2023-10-29T15:28:06.950Z,0.80
2023-10-29T15:31:16.212Z,1.53
2023-10-29T15:34:24.775Z,1.80
2023-10-29T15:37:33.637Z,1.57
2023-10-29T15:40:43.569Z,1.20
2023-10-29T15:43:53.239Z,0.60
2023-10-29T15:47:01.898Z,0.53
2023-10-29T15:50:12.659Z,0.50
2023-10-29T15:53:21.964Z,0.50
2023-10-29T15:56:33.288Z,0.80
2023-10-29T15:59:41.877Z,1.00
2023-10-29T16:02:50.499Z,1.03
2023-10-29T16:06:07.714Z,1.43
2023-10-29T16:09:16.727Z,1.70
2023-10-29T16:12:26.791Z,1.50
2023-10-29T16:15:35.544Z,1.27
2023-10-29T16:18:44.217Z,1.10
2023-10-29T16:21:53.777Z,1.00
2023-10-29T16:25:02.929Z,0.80
2023-10-29T16:28:13.284Z,0.60
2023-10-29T16:31:22.246Z,0.90
2023-10-29T16:34:30.927Z,1.80
2023-10-29T16:37:39.692Z,1.73
2023-10-29T16:40:49.470Z,3.00
2023-10-29T16:43:59.683Z,5.30
2023-10-29T16:47:08.282Z,5.87
2023-10-29T16:50:16.983Z,4.07
2023-10-29T16:53:26.096Z,3.10
2023-10-29T16:56:34.718Z,3.20
2023-10-29T16:59:46.167Z,3.30
2023-10-29T17:02:55.083Z,2.40
2023-10-29T17:06:06.863Z,2.30
2023-10-29T17:09:15.995Z,1.63
2023-10-29T17:12:24.616Z,1.50
2023-10-29T17:15:34.589Z,1.50
2023-10-29T17:18:43.250Z,1.37
2023-10-29T17:21:51.947Z,1.13
2023-10-29T17:25:04.291Z,1.13
2023-10-29T17:28:12.973Z,1.20
2023-10-29T17:31:23.583Z,1.30
2023-10-29T17:34:35.445Z,1.50
2023-10-29T17:37:44.461Z,1.20
2023-10-29T17:40:53.033Z,1.00
2023-10-29T17:44:01.987Z,1.70
2023-10-29T17:47:12.687Z,1.10
2023-10-29T17:50:21.458Z,1.47
2023-10-29T17:53:30.072Z,0.80
2023-10-29T17:56:38.737Z,0.80
2023-10-29T17:59:47.289Z,1.03
2023-10-29T18:02:57.302Z,1.10
2023-10-29T18:06:19.617Z,0.80
2023-10-29T18:09:32.380Z,1.03
2023-10-29T18:12:40.985Z,1.80
2023-10-29T18:15:49.561Z,1.40
2023-10-29T18:19:01.033Z,1.70
2023-10-29T18:22:09.601Z,1.00
2023-10-29T18:25:18.119Z,0.43
2023-10-29T18:28:26.659Z,0.30
2023-10-29T18:31:37.804Z,0.27
2023-10-29T18:34:48.711Z,0.30
2023-10-29T18:37:57.360Z,0.20
2023-10-29T18:41:13.135Z,0.20
2023-10-29T18:44:25.137Z,0.83
2023-10-29T18:47:33.822Z,0.97
2023-10-29T18:50:43.741Z,0.93
2023-10-29T18:53:52.368Z,0.70
2023-10-29T18:57:01.319Z,0.30
2023-10-29T19:00:10.742Z,0.40
2023-10-29T19:03:19.540Z,0.27
2023-10-29T19:06:29.603Z,0.30
2023-10-29T19:09:38.394Z,1.00
2023-10-29T19:12:47.111Z,0.60
2023-10-29T19:16:01.186Z,0.80
2023-10-29T19:19:12.516Z,0.80
2023-10-29T19:22:31.217Z,0.83
2023-10-29T19:25:39.769Z,0.90
2023-10-29T19:28:48.727Z,0.97
2023-10-29T19:31:58.819Z,0.70
2023-10-29T19:35:09.220Z,0.40
2023-10-29T19:38:19.365Z,0.40
2023-10-29T19:41:28.036Z,0.20
2023-10-29T19:44:36.821Z,0.20
2023-10-29T19:47:46.272Z,0.20
2023-10-29T19:51:01.704Z,0.20
2023-10-29T19:54:12.931Z,0.20
2023-10-29T19:57:21.549Z,0.20
2023-10-29T20:00:30.437Z,0.20
2023-10-29T20:03:40.240Z,0.20
2023-10-29T20:06:49.372Z,0.30
2023-10-29T20:09:59.246Z,0.40
2023-10-29T20:13:08.276Z,0.50
2023-10-29T20:16:17.203Z,0.60
2023-10-29T20:19:25.841Z,0.53
2023-10-29T20:22:34.506Z,0.40
2023-10-29T20:25:44.526Z,0.50
2023-10-29T20:28:53.457Z,0.37
2023-10-29T20:32:04.106Z,0.40
2023-10-29T20:35:13.118Z,0.30
2023-10-29T20:38:23.453Z,0.40
2023-10-29T20:41:33.756Z,0.50
2023-10-29T20:44:43.004Z,0.30
2023-10-29T20:47:51.944Z,0.40
2023-10-29T20:51:01.927Z,0.30
2023-10-29T20:54:10.709Z,0.40
2023-10-29T20:57:20.906Z,0.30
2023-10-29T21:00:32.331Z,0.70
2023-10-29T21:03:41.374Z,0.90
2023-10-29T21:06:50.198Z,0.90
2023-10-29T21:09:58.730Z,0.97
2023-10-29T21:13:08.709Z,1.20
2023-10-29T21:16:21.553Z,1.03
2023-10-29T21:19:30.921Z,0.90
2023-10-29T21:22:40.031Z,0.80
2023-10-29T21:25:49.153Z,2.80
2023-10-29T21:28:59.275Z,3.27
2023-10-29T21:32:08.120Z,1.80
2023-10-29T21:35:16.991Z,1.23
2023-10-29T21:38:25.728Z,1.23
2023-10-29T21:41:34.391Z,0.87
2023-10-29T21:44:47.444Z,0.80
2023-10-29T21:47:56.128Z,0.50
2023-10-29T21:51:07.649Z,0.90
2023-10-29T21:54:16.489Z,1.07
2023-10-29T21:57:25.114Z,0.60
2023-10-29T22:00:35.143Z,0.47
2023-10-29T22:03:43.916Z,0.33
2023-10-29T22:06:52.675Z,0.40
2023-10-29T22:10:01.388Z,0.27
2023-10-29T22:13:10.023Z,0.50
2023-10-29T22:16:20.435Z,0.30
2023-10-29T22:19:29.460Z,0.20
2023-10-29T22:22:38.185Z,0.37
2023-10-29T22:25:48.511Z,0.40
2023-10-29T22:28:57.347Z,0.33
2023-10-29T22:32:07.840Z,0.60
2023-10-29T22:35:16.418Z,0.50
2023-10-29T22:38:25.539Z,0.40
2023-10-29T22:41:34.211Z,0.40
2023-10-29T22:44:43.379Z,0.40
2023-10-29T22:47:53.353Z,0.60
2023-10-29T22:51:04.123Z,0.30
2023-10-29T22:54:13.530Z,0.40
2023-10-29T22:57:22.207Z,0.50
2023-10-29T23:00:31.001Z,0.50
2023-10-29T23:03:41.694Z,0.43
2023-10-29T23:06:50.320Z,0.50
2023-10-29T23:09:58.959Z,0.33
2023-10-29T23:13:07.777Z,0.50
2023-10-29T23:16:16.666Z,0.50
2023-10-29T23:19:28.129Z,0.40
2023-10-29T23:22:36.727Z,0.40
2023-10-29T23:25:45.952Z,0.30
2023-10-29T23:28:54.647Z,0.30
2023-10-29T23:32:03.531Z,0.47
2023-10-29T23:35:13.538Z,0.40
2023-10-29T23:38:22.075Z,0.47
2023-10-29T23:41:30.788Z,0.43
2023-10-29T23:44:39.398Z,0.40
2023-10-29T23:47:48.667Z,0.40
2023-10-29T23:50:58.634Z,0.40
2023-10-29T23:54:07.693Z,0.50
2023-10-29T23:57:16.242Z,0.50
